createdAt,value
2019-04-14T00:16:11.831Z,2.24
2019-04-14T00:18:40.693Z,2.03
2019-04-14T00:21:10.785Z,1.92
2019-04-14T00:23:41.173Z,2.09
2019-04-14T00:26:31.548Z,1.83
2019-04-14T00:29:00.884Z,1.96
2019-04-14T00:31:30.740Z,1.86
2019-04-14T00:34:02.898Z,1.89
2019-04-14T00:36:52.310Z,1.77
2019-04-14T00:39:27.661Z,1.63
2019-04-14T00:42:16.884Z,1.78
2019-04-14T00:44:49.574Z,1.60
2019-04-14T00:47:24.718Z,1.66
2019-04-14T00:49:53.673Z,1.59
2019-04-14T00:52:23.411Z,1.43
2019-04-14T00:54:52.418Z,1.40
2019-04-14T00:57:22.393Z,1.35
2019-04-14T00:59:52.997Z,1.29
2019-04-14T01:02:23.219Z,1.31
2019-04-14T01:04:53.439Z,1.39
2019-04-14T01:07:24.028Z,1.19
2019-04-14T01:09:53.212Z,1.07
2019-04-14T01:12:23.426Z,1.00
2019-04-14T01:14:53.767Z,0.84
2019-04-14T01:17:24.373Z,0.91
2019-04-14T01:19:53.330Z,0.74
2019-04-14T01:22:22.788Z,0.77
2019-04-14T01:24:53.179Z,0.77
2019-04-14T01:27:23.563Z,0.59
2019-04-14T01:29:54.502Z,0.65
2019-04-14T01:32:24.064Z,0.41
2019-04-14T01:34:55.235Z,0.56
2019-04-14T01:37:24.769Z,0.45
2019-04-14T01:39:54.600Z,0.46
2019-04-14T01:42:24.567Z,0.48
2019-04-14T01:44:54.538Z,0.23
2019-04-14T01:47:24.670Z,0.24
2019-04-14T01:49:53.796Z,0.27
2019-04-14T01:52:54.417Z,0.40
2019-04-14T01:55:46.251Z,0.30
2019-04-14T01:58:25.150Z,0.23
2019-04-14T02:01:10.543Z,0.14
2019-04-14T02:03:40.887Z,0.12
2019-04-14T02:06:13.656Z,0.14
2019-04-14T02:08:43.677Z,0.16
2019-04-14T02:11:13.696Z,0.32
2019-04-14T02:13:42.750Z,0.24
2019-04-14T02:16:22.973Z,0.36
2019-04-14T02:18:42.740Z,0.27
2019-04-14T02:21:12.819Z,0.24
2019-04-14T02:23:43.222Z,0.22
2019-04-14T02:26:13.232Z,0.20
2019-04-14T02:28:42.212Z,0.14
2019-04-14T02:31:24.793Z,0.11
2019-04-14T02:34:08.194Z,0.19
2019-04-14T02:36:42.910Z,0.17
2019-04-14T02:39:16.989Z,0.17
2019-04-14T02:41:47.309Z,0.17
2019-04-14T02:46:47.893Z,0.08
2019-04-14T02:49:12.421Z,0.15
2019-04-14T02:51:40.111Z,0.13
2019-04-14T02:54:14.272Z,0.27
2019-04-14T02:56:43.372Z,0.31
2019-04-14T02:59:11.285Z,0.36
2019-04-14T03:01:59.520Z,0.47
2019-04-14T03:06:50.419Z,0.61
2019-04-14T03:11:48.885Z,0.61
2019-04-14T03:14:27.746Z,0.70
2019-04-14T03:17:25.368Z,0.81
2019-04-14T03:20:11.268Z,0.85
2019-04-14T03:22:40.573Z,0.91
2019-04-14T03:25:17.100Z,0.88
2019-04-14T03:28:06.851Z,1.04
2019-04-14T03:36:06.411Z,1.55
2019-04-14T03:43:13.668Z,1.31
2019-04-14T03:45:43.252Z,1.42
2019-04-14T03:48:42.828Z,1.45
2019-04-14T03:50:36.901Z,1.79
2019-04-14T03:55:58.821Z,1.40
2019-04-14T03:58:22.621Z,1.38
2019-04-14T04:00:51.644Z,1.44
2019-04-14T04:03:21.803Z,1.41
2019-04-14T04:05:52.071Z,1.37
2019-04-14T04:08:22.255Z,1.49
2019-04-14T04:10:53.162Z,1.83
2019-04-14T04:13:22.197Z,1.58
2019-04-14T04:15:51.976Z,1.87
2019-04-14T04:18:24.145Z,1.67
2019-04-14T04:21:00.924Z,1.56
2019-04-14T04:23:53.284Z,1.36
2019-04-14T04:26:36.493Z,1.88
2019-04-14T04:29:09.689Z,1.67
2019-04-14T04:32:01.394Z,1.67
2019-04-14T04:34:40.171Z,1.28
2019-04-14T04:37:17.226Z,1.28
2019-04-14T04:39:47.573Z,1.52
2019-04-14T04:42:17.682Z,1.49
2019-04-14T04:44:46.670Z,1.84
2019-04-14T04:47:16.584Z,1.90
2019-04-14T04:49:46.891Z,1.70
2019-04-14T04:52:17.199Z,1.83
2019-04-14T04:54:47.429Z,1.89
2019-04-14T04:57:17.821Z,2.14
2019-04-14T04:59:47.430Z,1.96
2019-04-14T05:02:17.617Z,1.85
2019-04-14T05:04:46.578Z,2.04
2019-04-14T05:07:16.692Z,1.94
2019-04-14T05:10:08.854Z,2.10
2019-04-14T05:12:54.447Z,1.99
2019-04-14T05:15:45.049Z,2.00
2019-04-14T05:18:24.691Z,1.88
2019-04-14T05:20:55.240Z,1.97
2019-04-14T05:23:25.628Z,2.03
2019-04-14T05:25:55.960Z,2.10
2019-04-14T05:28:26.579Z,2.22
2019-04-14T05:30:56.759Z,2.32
2019-04-14T05:33:27.068Z,2.41
2019-04-14T05:35:57.331Z,2.63
2019-04-14T05:38:30.273Z,2.41
2019-04-14T05:40:58.250Z,2.56
2019-04-14T05:43:36.751Z,2.63
2019-04-14T05:45:59.136Z,2.70
2019-04-14T05:48:29.274Z,2.80
2019-04-14T05:50:58.399Z,2.99
2019-04-14T05:53:28.331Z,3.23
2019-04-14T05:55:57.185Z,3.22
2019-04-14T05:58:27.233Z,3.44
2019-04-14T06:00:56.451Z,3.25
2019-04-14T06:03:25.656Z,3.25
2019-04-14T06:05:54.811Z,3.30
2019-04-14T06:08:23.762Z,3.44
2019-04-14T06:10:52.755Z,3.63
2019-04-14T06:13:21.710Z,3.73
2019-04-14T06:15:50.810Z,3.76
2019-04-14T06:18:19.772Z,4.00
2019-04-14T06:20:48.762Z,3.80
2019-04-14T06:23:17.784Z,3.91
2019-04-14T06:25:46.744Z,4.02
2019-04-14T06:28:16.755Z,4.46
2019-04-14T06:30:58.673Z,4.57
2019-04-14T06:33:37.639Z,4.67
2019-04-14T06:36:16.998Z,4.67
2019-04-14T06:38:47.927Z,5.16
2019-04-14T06:41:18.819Z,5.22
2019-04-14T06:43:48.936Z,5.30
2019-04-14T06:46:22.960Z,4.90
2019-04-14T06:48:51.976Z,4.91
2019-04-14T06:51:21.163Z,4.87
2019-04-14T06:53:50.123Z,4.99
2019-04-14T06:56:18.998Z,4.89
2019-04-14T06:58:47.989Z,4.81
2019-04-14T07:01:16.951Z,4.92
2019-04-14T07:03:45.934Z,4.93
2019-04-14T07:06:22.412Z,4.98
2019-04-14T07:08:54.003Z,4.98
2019-04-14T07:15:29.215Z,5.51
2019-04-14T07:17:58.628Z,5.73
2019-04-14T07:20:28.121Z,5.80
2019-04-14T07:23:00.264Z,5.92
2019-04-14T07:25:29.522Z,6.14
2019-04-14T07:27:58.453Z,6.21
2019-04-14T07:30:59.672Z,6.26
2019-04-14T07:33:41.115Z,6.25
2019-04-14T07:36:32.175Z,6.16
2019-04-14T07:39:19.497Z,6.15
2019-04-14T07:42:05.009Z,6.11
2019-04-14T07:44:48.000Z,6.10
2019-04-14T07:47:22.441Z,6.06
2019-04-14T07:50:14.749Z,6.13
2019-04-14T07:52:53.486Z,5.77
2019-04-14T07:55:38.523Z,5.96
2019-04-14T07:58:35.927Z,6.12
2019-04-14T08:01:15.212Z,6.06
2019-04-14T08:04:01.770Z,6.08
2019-04-14T08:06:32.307Z,6.16
2019-04-14T08:09:01.659Z,6.22
2019-04-14T08:11:41.555Z,6.17
2019-04-14T08:14:13.923Z,6.14
2019-04-14T08:16:46.032Z,6.33
2019-04-14T08:19:16.788Z,6.36
2019-04-14T08:25:27.500Z,6.41
2019-04-14T08:27:57.526Z,6.60
2019-04-14T08:30:26.661Z,6.97
2019-04-14T08:32:55.675Z,6.88
2019-04-14T08:35:24.802Z,6.88
2019-04-14T08:37:53.888Z,7.19
2019-04-14T08:40:22.922Z,7.09
2019-04-14T08:43:18.393Z,6.84
2019-04-14T08:46:01.426Z,6.87
2019-04-14T08:56:02.491Z,6.79
2019-04-14T08:58:57.168Z,6.69
2019-04-14T09:01:33.758Z,6.50
2019-04-14T09:04:17.168Z,6.63
2019-04-14T09:07:06.998Z,6.48
2019-04-14T09:09:41.973Z,6.39
2019-04-14T09:12:16.062Z,6.54
2019-04-14T09:14:56.409Z,6.67
2019-04-14T09:17:17.543Z,6.72
2019-04-14T09:19:47.065Z,6.79
2019-04-14T09:22:16.331Z,6.98
2019-04-14T09:24:45.470Z,6.87
2019-04-14T09:27:15.229Z,6.69
2019-04-14T09:29:44.424Z,6.48
2019-04-14T09:32:14.041Z,6.43
2019-04-14T09:34:43.045Z,6.21
2019-04-14T09:37:12.280Z,6.17
2019-04-14T09:39:43.926Z,6.14
2019-04-14T09:42:12.746Z,6.08
2019-04-14T09:44:41.543Z,6.12
2019-04-14T09:47:10.338Z,6.24
2019-04-14T09:49:39.337Z,6.22
2019-04-14T09:52:08.408Z,6.25
2019-04-14T09:54:37.274Z,6.33
2019-04-14T09:57:06.346Z,6.45
2019-04-14T09:59:35.394Z,6.38
2019-04-14T10:02:04.782Z,6.49
2019-04-14T10:04:33.697Z,6.47
2019-04-14T10:07:02.888Z,6.49
2019-04-14T10:09:31.941Z,6.38
2019-04-14T10:12:02.067Z,6.27
2019-04-14T10:14:31.028Z,6.07
2019-04-14T10:17:01.432Z,6.19
2019-04-14T10:19:30.851Z,6.40
2019-04-14T10:21:59.767Z,6.48
2019-04-14T10:24:28.800Z,6.80
2019-04-14T10:26:57.797Z,6.72
2019-04-14T10:29:27.489Z,6.61
2019-04-14T10:31:56.507Z,6.49
2019-04-14T10:37:20.306Z,6.45
2019-04-14T10:39:50.416Z,6.43
2019-04-14T10:42:37.029Z,6.35
2019-04-14T10:45:06.446Z,6.53
2019-04-14T10:47:59.300Z,6.73
2019-04-14T10:51:08.470Z,6.49
2019-04-14T10:53:35.784Z,6.64
2019-04-14T10:58:41.278Z,6.56
2019-04-14T11:02:51.495Z,6.60
2019-04-14T11:06:25.616Z,6.82
2019-04-14T11:09:46.720Z,7.33
2019-04-14T11:13:07.486Z,6.60
2019-04-14T11:15:53.022Z,6.68
2019-04-14T11:18:47.403Z,6.50
2019-04-14T11:25:39.956Z,6.37
2019-04-14T11:28:14.007Z,6.53
2019-04-14T11:30:44.167Z,6.87
2019-04-14T11:33:19.081Z,7.08
2019-04-14T11:42:52.206Z,6.87
2019-04-14T11:45:14.959Z,6.53
2019-04-14T11:47:45.476Z,6.40
2019-04-14T11:50:15.961Z,6.49
2019-04-14T11:52:45.495Z,6.35
2019-04-14T11:55:17.103Z,6.39
2019-04-14T11:57:47.902Z,6.36
2019-04-14T12:00:35.210Z,6.38
2019-04-14T12:03:24.897Z,6.37
2019-04-14T12:06:06.625Z,6.51
2019-04-14T12:08:45.571Z,6.36
2019-04-14T12:15:38.943Z,6.62
2019-04-14T12:18:08.447Z,6.75
2019-04-14T12:20:37.979Z,6.89
2019-04-14T12:23:08.066Z,7.08
2019-04-14T12:26:04.700Z,7.05
2019-04-14T12:28:42.916Z,7.12
2019-04-14T12:32:15.092Z,7.34
2019-04-14T12:34:39.166Z,7.39
2019-04-14T12:37:34.224Z,7.31
2019-04-14T12:40:56.286Z,7.37
2019-04-14T12:44:14.592Z,7.38
2019-04-14T12:46:57.210Z,7.20
2019-04-14T12:49:31.425Z,6.87
2019-04-14T12:52:22.176Z,6.78
2019-04-14T12:54:52.023Z,6.72
2019-04-14T12:57:30.658Z,6.66
2019-04-14T13:00:00.514Z,6.64
2019-04-14T13:02:54.898Z,6.95
2019-04-14T13:05:24.204Z,7.05
2019-04-14T13:07:53.443Z,7.23
2019-04-14T13:10:30.001Z,7.06
2019-04-14T13:12:59.177Z,6.74
2019-04-14T13:15:28.732Z,7.11
2019-04-14T13:17:58.947Z,7.05
2019-04-14T13:20:29.244Z,7.05
2019-04-14T13:23:09.760Z,6.98
2019-04-14T13:25:44.195Z,7.00
2019-04-14T13:28:13.524Z,7.01
2019-04-14T13:30:45.170Z,6.87
2019-04-14T13:33:17.132Z,6.87
2019-04-14T13:35:47.095Z,6.87
2019-04-14T13:38:17.872Z,6.85
2019-04-14T13:40:46.756Z,7.01
2019-04-14T13:43:15.606Z,7.01
2019-04-14T13:45:44.635Z,7.03
2019-04-14T13:48:16.435Z,7.03
2019-04-14T13:50:45.333Z,6.89
2019-04-14T13:53:14.201Z,6.74
2019-04-14T13:55:43.566Z,6.89
2019-04-14T13:58:12.950Z,6.79
2019-04-14T14:00:42.017Z,6.93
2019-04-14T14:03:11.098Z,6.86
2019-04-14T14:05:43.370Z,6.96
2019-04-14T14:08:27.025Z,6.85
2019-04-14T14:11:09.850Z,6.82
2019-04-14T14:14:13.555Z,6.80
2019-04-14T14:16:57.569Z,7.03
2019-04-14T14:19:43.928Z,7.24
2019-04-14T14:22:16.787Z,7.13
2019-04-14T14:25:00.464Z,7.24
2019-04-14T14:27:29.290Z,7.09
2019-04-14T14:29:58.336Z,7.29
2019-04-14T14:32:35.382Z,7.34
2019-04-14T14:35:05.831Z,7.36
2019-04-14T14:37:35.167Z,7.38
2019-04-14T14:40:25.300Z,7.43
2019-04-14T14:42:44.683Z,7.51
2019-04-14T14:45:31.890Z,7.41
2019-04-14T14:48:15.956Z,7.43
2019-04-14T14:51:00.151Z,7.51
2019-04-14T14:53:29.910Z,7.57
2019-04-14T14:56:00.021Z,7.52
2019-04-14T14:58:28.958Z,7.49
2019-04-14T15:00:57.973Z,7.41
2019-04-14T15:03:27.226Z,7.28
2019-04-14T15:05:56.878Z,7.34
2019-04-14T15:08:25.844Z,7.34
2019-04-14T15:11:04.187Z,7.35
2019-04-14T15:13:36.092Z,7.28
2019-04-14T15:16:05.485Z,7.35
2019-04-14T15:18:37.461Z,7.24
2019-04-14T15:21:06.863Z,7.26
2019-04-14T15:23:36.916Z,7.18
2019-04-14T15:26:05.994Z,7.21
2019-04-14T15:28:35.446Z,7.15
2019-04-14T15:31:06.534Z,7.20
2019-04-14T15:33:35.668Z,7.27
2019-04-14T15:36:04.953Z,7.22
2019-04-14T15:38:34.990Z,7.24
2019-04-14T15:41:04.682Z,7.33
2019-04-14T15:43:33.776Z,7.23
2019-04-14T15:46:04.120Z,7.25
2019-04-14T15:48:33.101Z,7.29
2019-04-14T15:51:02.291Z,7.34
2019-04-14T15:53:37.924Z,7.31
2019-04-14T15:56:02.056Z,7.28
2019-04-14T15:58:55.315Z,7.27
2019-04-14T16:01:34.142Z,7.31
2019-04-14T16:04:08.709Z,7.42
2019-04-14T16:06:56.713Z,7.41
2019-04-14T16:09:43.369Z,7.31
2019-04-14T16:12:26.316Z,7.28
2019-04-14T16:15:06.965Z,7.28
2019-04-14T16:17:59.743Z,7.31
2019-04-14T16:20:33.823Z,7.38
2019-04-14T16:23:05.210Z,7.28
2019-04-14T16:25:41.757Z,7.26
2019-04-14T16:28:16.507Z,7.24
2019-04-14T16:31:03.633Z,7.35
2019-04-14T16:33:50.432Z,7.24
2019-04-14T16:36:20.271Z,7.16
2019-04-14T16:38:49.260Z,7.04
2019-04-14T16:41:24.850Z,7.01
2019-04-14T16:43:53.831Z,7.00
2019-04-14T16:46:22.762Z,7.01
2019-04-14T16:48:52.852Z,7.00
2019-04-14T16:51:26.938Z,7.00
2019-04-14T16:54:02.902Z,7.11
2019-04-14T16:56:48.853Z,7.06
2019-04-14T16:59:17.834Z,6.82
2019-04-14T17:01:48.332Z,6.86
2019-04-14T17:04:17.230Z,6.87
2019-04-14T17:06:46.145Z,6.89
2019-04-14T17:09:15.133Z,6.94
2019-04-14T17:11:43.921Z,6.81
2019-04-14T17:14:20.112Z,6.81
2019-04-14T17:17:07.829Z,6.80
2019-04-14T17:19:57.170Z,6.75
2019-04-14T17:22:35.715Z,6.87
2019-04-14T17:25:33.410Z,6.73
2019-04-14T17:28:19.776Z,6.63
2019-04-14T17:31:07.607Z,6.67
2019-04-14T17:33:44.614Z,6.51
2019-04-14T17:36:35.020Z,6.61
2019-04-14T17:39:31.780Z,6.63
2019-04-14T17:42:19.236Z,6.50
2019-04-14T17:45:01.495Z,6.49
2019-04-14T17:48:04.669Z,6.56
2019-04-14T17:51:10.806Z,6.51
2019-04-14T17:53:59.063Z,6.39
2019-04-14T17:56:35.512Z,6.40
2019-04-14T17:59:35.536Z,6.50
2019-04-14T18:02:17.607Z,6.46
2019-04-14T18:05:05.795Z,6.38
2019-04-14T18:07:48.823Z,6.38
2019-04-14T18:10:34.797Z,6.34
2019-04-14T18:13:13.517Z,6.35
2019-04-14T18:15:50.675Z,6.38
2019-04-14T18:18:31.015Z,6.30
2019-04-14T18:21:03.199Z,6.27
2019-04-14T18:23:32.287Z,6.32
2019-04-14T18:26:01.246Z,6.31
2019-04-14T18:28:48.237Z,6.35
2019-04-14T18:31:39.263Z,6.25
2019-04-14T18:34:18.988Z,6.26
2019-04-14T18:36:58.631Z,6.22
2019-04-14T18:39:49.785Z,6.24
2019-04-14T18:42:22.879Z,6.22
2019-04-14T18:45:09.758Z,6.31
2019-04-14T18:47:46.532Z,6.21
2019-04-14T18:50:24.004Z,6.27
2019-04-14T18:53:01.033Z,6.31
2019-04-14T18:55:55.402Z,6.32
2019-04-14T18:58:38.314Z,6.33
2019-04-14T19:01:16.358Z,6.32
2019-04-14T19:03:46.274Z,6.27
2019-04-14T19:06:15.398Z,6.33
2019-04-14T19:08:44.348Z,6.38
2019-04-14T19:11:32.414Z,6.34
2019-04-14T19:14:01.567Z,6.33
2019-04-14T19:16:43.459Z,6.35
2019-04-14T19:19:12.400Z,6.41
2019-04-14T19:21:41.270Z,6.44
2019-04-14T19:24:10.615Z,6.41
2019-04-14T19:26:39.890Z,6.43
2019-04-14T19:29:08.814Z,6.43
2019-04-14T19:31:38.063Z,6.51
2019-04-14T19:34:07.963Z,6.48
2019-04-14T19:36:36.823Z,6.51
2019-04-14T19:39:09.650Z,6.49
2019-04-14T19:41:39.792Z,6.50
2019-04-14T19:44:09.304Z,6.53
2019-04-14T19:46:44.801Z,6.40
2019-04-14T19:49:13.781Z,6.42
2019-04-14T19:51:42.746Z,6.46
2019-04-14T19:54:11.642Z,6.48
2019-04-14T19:56:43.500Z,6.45
2019-04-14T19:59:12.290Z,6.44
2019-04-14T20:01:41.718Z,6.43
2019-04-14T20:04:10.783Z,6.53
2019-04-14T20:06:39.641Z,6.42
2019-04-14T20:09:08.585Z,6.45
2019-04-14T20:11:37.476Z,6.48
2019-04-14T20:14:06.382Z,6.50
2019-04-14T20:16:48.135Z,6.49
2019-04-14T20:19:39.346Z,6.42
2019-04-14T20:22:30.402Z,6.50
2019-04-14T20:25:34.208Z,6.49
2019-04-14T20:28:10.958Z,6.48
2019-04-14T20:31:04.249Z,6.48
2019-04-14T20:33:33.122Z,6.43
2019-04-14T20:36:05.154Z,6.52
2019-04-14T20:38:32.649Z,6.52
2019-04-14T20:41:01.834Z,6.50
2019-04-14T20:43:31.178Z,6.53
2019-04-14T20:46:00.199Z,6.54
2019-04-14T20:48:29.438Z,6.55
2019-04-14T20:50:58.887Z,6.60
2019-04-14T20:53:27.947Z,6.53
2019-04-14T20:55:56.802Z,6.50
2019-04-14T20:58:25.947Z,6.52
2019-04-14T21:00:55.238Z,6.49
2019-04-14T21:03:35.179Z,6.45
2019-04-14T21:06:35.126Z,6.53
2019-04-14T21:09:17.113Z,6.52
2019-04-14T21:12:05.125Z,6.55
2019-04-14T21:14:43.985Z,6.51
2019-04-14T21:17:31.780Z,6.53
2019-04-14T21:20:22.684Z,6.50
2019-04-14T21:22:58.671Z,6.54
2019-04-14T21:25:36.061Z,6.47
2019-04-14T21:28:37.238Z,6.42
2019-04-14T21:31:24.055Z,6.44
2019-04-14T21:34:02.610Z,6.45
2019-04-14T21:36:39.879Z,6.49
2019-04-14T21:39:26.528Z,6.42
2019-04-14T21:41:55.346Z,6.41
2019-04-14T21:44:24.313Z,6.35
2019-04-14T21:46:53.152Z,6.41
2019-04-14T21:49:22.159Z,6.46
2019-04-14T21:52:01.752Z,6.37
2019-04-14T21:54:30.754Z,6.42
2019-04-14T21:57:24.612Z,6.37
2019-04-14T22:00:08.713Z,6.37
2019-04-14T22:02:55.559Z,6.40
2019-04-14T22:05:41.192Z,6.29
2019-04-14T22:08:17.162Z,6.39
2019-04-14T22:10:55.387Z,6.27
2019-04-14T22:13:24.316Z,6.26
2019-04-14T22:15:56.467Z,6.20
2019-04-14T22:18:25.440Z,6.28
2019-04-14T22:20:54.471Z,6.23
2019-04-14T22:23:23.507Z,6.25
2019-04-14T22:26:47.239Z,6.12
2019-04-14T22:29:16.066Z,6.17
2019-04-14T22:31:45.117Z,6.14
2019-04-14T22:34:14.136Z,6.17
2019-04-14T22:36:43.017Z,6.14
2019-04-14T22:39:15.112Z,6.13
2019-04-14T22:41:45.929Z,6.09
2019-04-14T22:44:15.095Z,6.10
2019-04-14T22:46:43.983Z,6.02
2019-04-14T22:49:12.892Z,6.05
2019-04-14T22:51:41.828Z,6.08
2019-04-14T22:54:11.016Z,6.05
2019-04-14T22:56:39.997Z,6.03
2019-04-14T22:59:09.235Z,5.91
2019-04-14T23:01:41.309Z,6.03
2019-04-14T23:04:20.500Z,6.02
2019-04-14T23:07:14.457Z,6.02
2019-04-14T23:09:51.192Z,5.90
2019-04-14T23:12:45.089Z,5.98
2019-04-14T23:15:33.730Z,5.88
2019-04-14T23:18:13.914Z,5.91
2019-04-14T23:21:00.746Z,5.92
2019-04-14T23:23:58.310Z,5.87
2019-04-14T23:26:27.129Z,5.84
2019-04-14T23:28:56.109Z,5.86
2019-04-14T23:31:24.897Z,5.74
2019-04-14T23:33:53.723Z,5.79
2019-04-14T23:36:22.569Z,5.73
2019-04-14T23:38:51.652Z,5.87
2019-04-14T23:41:20.595Z,5.73
2019-04-14T23:43:49.424Z,5.70
2019-04-14T23:46:18.306Z,5.79
2019-04-14T23:48:47.266Z,5.73
2019-04-14T23:51:16.305Z,5.71
2019-04-14T23:53:45.212Z,5.65
2019-04-14T23:56:14.080Z,5.74
2019-04-14T23:58:43.039Z,5.74
